Time;durP1;ratioP1;P1;durP2;ratioP2;P2;SDS_P1;SDS_P2;PMS_P1;PMS_P2;Temp;Humidity;BMP_temperature;BMP_pressure;BME280_temperature;BME280_humidity;BME280_pressure;Samples;Min_cycle;Max_cycle;Signal;HPM_P1;HPM_P2
2023/09/22 00:00:10;;;;;;;0.40;0.10;;;16.00;99.90;;;;;;5137473;27;20434;-55
2023/09/22 00:02:38;;;;;;;0.40;0.10;;;15.90;99.90;;;;;;5133222;27;20419;-59
2023/09/22 00:05:07;;;;;;;0.50;0.20;;;16.00;99.90;;;;;;5123866;27;20418;-55
2023/09/22 00:07:34;;;;;;;0.40;0.20;;;16.10;99.90;;;;;;5137442;27;20418;-54
2023/09/22 00:10:01;;;;;;;0.30;0.10;;;16.10;99.90;;;;;;5135999;27;20406;-57
2023/09/22 00:12:30;;;;;;;0.30;0.10;;;16.00;99.90;;;;;;5134689;27;20668;-56
2023/09/22 00:14:59;;;;;;;0.40;0.20;;;15.90;99.90;;;;;;5137214;27;20422;-55
2023/09/22 00:17:27;;;;;;;0.40;0.17;;;15.80;99.90;;;;;;5135989;27;20417;-55
2023/09/22 00:19:54;;;;;;;0.50;0.10;;;15.70;99.90;;;;;;5136438;27;20892;-55
2023/09/22 00:22:22;;;;;;;0.40;0.20;;;15.70;99.90;;;;;;5136121;27;20418;-51
2023/09/22 00:24:50;;;;;;;0.30;0.10;;;15.70;99.90;;;;;;5119421;27;20422;-56
2023/09/22 00:27:17;;;;;;;0.50;0.10;;;15.60;99.90;;;;;;5135375;27;20760;-55
2023/09/22 00:29:44;;;;;;;0.50;0.20;;;15.60;99.90;;;;;;5136434;27;20442;-55
2023/09/22 00:32:13;;;;;;;0.43;0.20;;;15.70;99.90;;;;;;5136679;27;20687;-55
2023/09/22 00:34:40;;;;;;;0.50;0.20;;;15.60;99.90;;;;;;5136805;27;20696;-55
2023/09/22 00:37:07;;;;;;;0.50;0.10;;;15.60;99.90;;;;;;5136450;27;20424;-56
2023/09/22 00:39:34;;;;;;;0.38;0.20;;;15.50;99.90;;;;;;5136208;27;20437;-55
2023/09/22 00:42:05;;;;;;;0.80;0.20;;;15.60;99.90;;;;;;5136448;27;20441;-54
2023/09/22 00:44:32;;;;;;;1.00;0.15;;;15.50;99.90;;;;;;5136550;27;20473;-55
2023/09/22 00:47:00;;;;;;;0.40;0.20;;;15.50;99.90;;;;;;5136488;27;20421;-55
2023/09/22 00:49:30;;;;;;;0.50;0.20;;;15.40;99.90;;;;;;5137262;27;20418;-52
2023/09/22 00:51:58;;;;;;;0.50;0.20;;;15.40;99.90;;;;;;5136267;27;20455;-55
2023/09/22 00:54:25;;;;;;;0.93;0.38;;;15.30;99.90;;;;;;5136694;27;20517;-53
2023/09/22 00:56:53;;;;;;;0.40;0.20;;;15.20;99.90;;;;;;5135644;27;20598;-53
2023/09/22 00:59:21;;;;;;;0.30;0.10;;;15.20;99.90;;;;;;5136292;27;20440;-54
2023/09/22 01:01:48;;;;;;;0.40;0.20;;;15.10;99.90;;;;;;5136147;27;20430;-54
2023/09/22 01:04:16;;;;;;;0.40;0.17;;;15.10;99.90;;;;;;5134678;27;20429;-52
2023/09/22 01:06:46;;;;;;;0.40;0.20;;;15.10;99.90;;;;;;5134990;27;20458;-55
2023/09/22 01:09:14;;;;;;;0.50;0.20;;;15.40;99.90;;;;;;5131692;27;20415;-55
2023/09/22 01:11:41;;;;;;;0.70;0.32;;;15.40;99.90;;;;;;5134298;27;20403;-55
2023/09/22 01:14:09;;;;;;;0.50;0.20;;;15.20;99.90;;;;;;5134238;27;20425;-57
2023/09/22 01:16:36;;;;;;;0.50;0.10;;;15.20;99.90;;;;;;5134328;27;20468;-56
2023/09/22 01:19:03;;;;;;;0.55;0.20;;;15.10;99.90;;;;;;5134269;27;20831;-56
2023/09/22 01:21:32;;;;;;;0.80;0.20;;;15.10;99.90;;;;;;5135224;27;20431;-57
2023/09/22 01:23:59;;;;;;;0.80;0.30;;;15.10;99.90;;;;;;5126510;27;20425;-57
2023/09/22 01:26:27;;;;;;;0.50;0.20;;;15.10;99.90;;;;;;5127557;28;20493;-55
2023/09/22 01:28:54;;;;;;;0.40;0.20;;;15.20;99.90;;;;;;5132726;28;20885;-54
2023/09/22 01:31:21;;;;;;;0.40;0.13;;;15.30;99.90;;;;;;5132052;28;20428;-55
2023/09/22 01:33:49;;;;;;;2.00;0.20;;;15.20;99.90;;;;;;5131872;28;20422;-54
2023/09/22 01:36:16;;;;;;;0.40;0.20;;;15.20;99.90;;;;;;5133138;28;20841;-52
2023/09/22 01:38:44;;;;;;;0.50;0.20;;;15.10;99.90;;;;;;5133660;28;20417;-58
2023/09/22 01:41:12;;;;;;;0.40;0.20;;;15.00;99.90;;;;;;5133727;28;20795;-54
2023/09/22 01:43:39;;;;;;;0.50;0.20;;;15.10;99.90;;;;;;5135587;28;20486;-54
2023/09/22 01:46:06;;;;;;;0.40;0.20;;;15.10;99.90;;;;;;5136558;28;20481;-54
2023/09/22 01:48:34;;;;;;;0.50;0.20;;;15.20;99.90;;;;;;5136171;28;20414;-56
2023/09/22 01:51:02;;;;;;;0.40;0.15;;;15.20;99.90;;;;;;5135584;28;20415;-54
2023/09/22 01:53:29;;;;;;;0.40;0.20;;;15.20;99.90;;;;;;5133751;28;20825;-56
2023/09/22 01:55:58;;;;;;;0.60;0.20;;;15.20;99.90;;;;;;5134421;28;20640;-56
2023/09/22 01:58:25;;;;;;;0.40;0.20;;;15.20;99.90;;;;;;5134777;28;20864;-57
2023/09/22 02:00:53;;;;;;;0.40;0.20;;;15.20;99.90;;;;;;5135831;28;20436;-57
2023/09/22 02:03:20;;;;;;;0.40;0.20;;;15.20;99.90;;;;;;5135625;28;20418;-56
2023/09/22 02:05:47;;;;;;;0.50;0.20;;;15.20;99.90;;;;;;5134223;28;20426;-55
2023/09/22 02:08:14;;;;;;;1.20;0.20;;;15.10;99.90;;;;;;5133732;28;20415;-57
2023/09/22 02:10:41;;;;;;;0.40;0.10;;;15.10;99.90;;;;;;5133795;28;20419;-57
2023/09/22 02:13:10;;;;;;;1.10;0.10;;;15.10;99.90;;;;;;5135545;28;20825;-56
2023/09/22 02:15:37;;;;;;;0.70;0.10;;;15.00;99.90;;;;;;5135452;28;20419;-56
2023/09/22 02:18:05;;;;;;;0.30;0.20;;;15.00;99.90;;;;;;5135219;28;20414;-55
2023/09/22 02:20:32;;;;;;;0.50;0.20;;;15.00;99.90;;;;;;5138552;27;20927;-55
2023/09/22 02:22:59;;;;;;;0.43;0.20;;;14.90;99.90;;;;;;5139634;27;20484;-55
2023/09/22 02:25:27;;;;;;;0.40;0.10;;;14.90;99.90;;;;;;5139773;27;20508;-53
2023/09/22 02:27:56;;;;;;;0.60;0.10;;;14.90;99.90;;;;;;5139792;27;20517;-57
2023/09/22 02:30:26;;;;;;;0.40;0.17;;;14.80;99.90;;;;;;5138443;27;20418;-57
2023/09/22 02:32:54;;;;;;;0.40;0.20;;;14.80;99.90;;;;;;5139252;27;20422;-54
2023/09/22 02:35:22;;;;;;;0.45;0.10;;;14.80;99.90;;;;;;5138976;27;20407;-56
2023/09/22 02:37:50;;;;;;;0.40;0.20;;;14.80;99.90;;;;;;5139316;27;20419;-55
2023/09/22 02:40:17;;;;;;;0.40;0.20;;;14.90;99.90;;;;;;5139316;27;20430;-55
2023/09/22 02:42:44;;;;;;;0.40;0.20;;;15.00;99.90;;;;;;5138668;27;20447;-56
2023/09/22 02:45:12;;;;;;;0.40;0.20;;;14.80;99.90;;;;;;5138850;27;20414;-57
2023/09/22 02:47:42;;;;;;;1.00;0.20;;;14.80;99.90;;;;;;5135503;27;20768;-56
2023/09/22 02:50:11;;;;;;;0.70;0.20;;;14.80;99.90;;;;;;5126679;27;20436;-56
2023/09/22 02:52:38;;;;;;;0.50;0.20;;;14.80;99.90;;;;;;5139105;27;20841;-55
2023/09/22 02:55:09;;;;;;;0.40;0.20;;;14.80;99.90;;;;;;5138267;27;20425;-53
2023/09/22 02:57:36;;;;;;;0.40;0.13;;;15.00;99.90;;;;;;5139231;27;20425;-52
2023/09/22 03:00:11;;;;;;;0.60;0.20;;;14.80;99.90;;;;;;5138552;27;20426;-56
2023/09/22 03:02:38;;;;;;;0.40;0.20;;;14.80;99.90;;;;;;5138027;27;20501;-56
2023/09/22 03:05:09;;;;;;;0.40;0.10;;;15.20;99.90;;;;;;5138732;27;20410;-55
2023/09/22 03:07:37;;;;;;;0.40;0.20;;;15.00;99.90;;;;;;5138931;27;20430;-57
2023/09/22 03:10:06;;;;;;;0.98;0.13;;;14.90;99.90;;;;;;5138601;27;20503;-55
2023/09/22 03:12:34;;;;;;;0.40;0.20;;;14.80;99.90;;;;;;5138450;27;20444;-51
2023/09/22 03:15:03;;;;;;;0.40;0.20;;;14.80;99.90;;;;;;5137497;27;20830;-57
2023/09/22 03:17:30;;;;;;;1.00;0.20;;;14.80;99.90;;;;;;5137702;27;20418;-57
2023/09/22 03:19:58;;;;;;;0.60;0.15;;;14.90;99.90;;;;;;5137518;27;20410;-56
2023/09/22 03:22:27;;;;;;;0.80;0.20;;;14.90;99.90;;;;;;5136723;27;20430;-56
2023/09/22 03:24:54;;;;;;;0.40;0.20;;;15.00;99.90;;;;;;5135393;27;20481;-53
2023/09/22 03:27:21;;;;;;;0.50;0.20;;;15.10;99.90;;;;;;5135146;27;20442;-56
2023/09/22 03:29:48;;;;;;;0.43;0.20;;;15.00;99.90;;;;;;5135041;27;20419;-56
2023/09/22 03:32:18;;;;;;;0.40;0.20;;;15.00;99.90;;;;;;5135015;27;20413;-53
2023/09/22 03:34:47;;;;;;;0.40;0.20;;;15.10;99.90;;;;;;5136146;27;20418;-55
2023/09/22 03:37:14;;;;;;;0.40;0.20;;;15.10;99.90;;;;;;5137190;27;20452;-56
2023/09/22 03:39:43;;;;;;;4.00;0.30;;;15.10;99.90;;;;;;5136714;27;20421;-55
2023/09/22 03:42:13;;;;;;;0.40;0.10;;;15.00;99.90;;;;;;5137701;27;20438;-54
2023/09/22 03:44:41;;;;;;;0.90;0.20;;;15.00;99.90;;;;;;5137169;27;20782;-55
2023/09/22 03:47:08;;;;;;;0.40;0.20;;;15.00;99.90;;;;;;5138072;27;20414;-55
2023/09/22 03:49:35;;;;;;;0.52;0.20;;;14.90;99.90;;;;;;5137426;27;20841;-56
2023/09/22 03:52:04;;;;;;;0.70;0.20;;;14.80;99.90;;;;;;5136380;27;20414;-53
2023/09/22 03:54:31;;;;;;;0.50;0.20;;;14.90;99.90;;;;;;5136512;27;20723;-57
2023/09/22 03:57:00;;;;;;;1.05;0.20;;;15.00;99.90;;;;;;5136415;27;20418;-56
2023/09/22 03:59:27;;;;;;;0.60;0.20;;;15.00;99.90;;;;;;5137440;27;20415;-58
2023/09/22 04:01:55;;;;;;;0.60;0.20;;;15.10;99.90;;;;;;5136075;27;20458;-57
2023/09/22 04:04:22;;;;;;;0.40;0.20;;;15.10;99.90;;;;;;5136816;27;20419;-58
2023/09/22 04:06:50;;;;;;;0.50;0.20;;;15.10;99.90;;;;;;5136154;27;20418;-56
2023/09/22 04:09:17;;;;;;;0.40;0.20;;;15.00;99.90;;;;;;5121169;27;20693;-56
2023/09/22 04:11:44;;;;;;;0.30;0.10;;;15.10;99.90;;;;;;5133375;27;20417;-58
2023/09/22 04:14:13;;;;;;;0.40;0.20;;;15.10;99.90;;;;;;5134298;27;20406;-57
2023/09/22 04:16:40;;;;;;;0.50;0.20;;;15.00;99.90;;;;;;5134329;27;20723;-55
2023/09/22 04:19:09;;;;;;;0.40;0.20;;;14.90;99.90;;;;;;5135106;27;20825;-57
2023/09/22 04:21:42;;;;;;;0.40;0.20;;;14.90;99.90;;;;;;5135045;27;20430;-58
2023/09/22 04:24:11;;;;;;;0.40;0.20;;;14.90;99.90;;;;;;5122383;27;20433;-56
2023/09/22 04:26:42;;;;;;;0.50;0.20;;;15.00;99.90;;;;;;5129630;27;20434;-56
2023/09/22 04:29:10;;;;;;;0.50;0.20;;;15.00;99.90;;;;;;5135727;27;20454;-57
2023/09/22 04:31:38;;;;;;;0.30;0.20;;;15.10;99.90;;;;;;5137219;27;20425;-57
2023/09/22 04:34:06;;;;;;;0.30;0.20;;;15.10;99.90;;;;;;5136365;27;20423;-55
2023/09/22 04:36:33;;;;;;;1.10;0.20;;;15.00;99.90;;;;;;5135557;27;20502;-55
2023/09/22 04:39:01;;;;;;;0.40;0.20;;;15.10;99.90;;;;;;5134821;27;20430;-57
2023/09/22 04:41:29;;;;;;;0.30;0.20;;;15.00;99.90;;;;;;5135991;27;20839;-57
2023/09/22 04:43:57;;;;;;;0.30;0.10;;;15.10;99.90;;;;;;5135467;27;20418;-57
2023/09/22 04:46:24;;;;;;;0.50;0.20;;;15.10;99.90;;;;;;5135223;27;20486;-57
2023/09/22 04:48:54;;;;;;;0.40;0.10;;;15.10;99.90;;;;;;5117614;27;20422;-56
2023/09/22 04:51:22;;;;;;;0.40;0.17;;;15.10;99.90;;;;;;5133507;27;20510;-55
2023/09/22 04:53:49;;;;;;;0.32;0.10;;;15.20;99.90;;;;;;5134296;27;20838;-57
2023/09/22 04:56:16;;;;;;;0.70;0.20;;;15.10;99.90;;;;;;5134389;27;20906;-56
2023/09/22 04:58:44;;;;;;;0.30;0.20;;;15.10;99.90;;;;;;5134792;27;20429;-57
2023/09/22 05:01:11;;;;;;;0.30;0.20;;;15.10;99.90;;;;;;5134052;27;20429;-56
2023/09/22 05:03:39;;;;;;;0.45;0.20;;;15.20;99.90;;;;;;5135305;27;20465;-56
2023/09/22 05:06:09;;;;;;;0.40;0.20;;;15.30;99.90;;;;;;5134050;27;20422;-56
2023/09/22 05:08:37;;;;;;;0.30;0.10;;;15.10;99.90;;;;;;5131813;27;20437;-57
2023/09/22 05:11:07;;;;;;;1.50;0.20;;;15.10;99.90;;;;;;5122135;27;20445;-56
2023/09/22 05:13:34;;;;;;;0.40;0.20;;;15.10;99.90;;;;;;5133804;27;20426;-57
2023/09/22 05:16:09;;;;;;;0.40;0.20;;;14.90;99.90;;;;;;5132474;27;20809;-57
2023/09/22 05:18:36;;;;;;;0.40;0.20;;;14.90;99.90;;;;;;5132357;27;20425;-58
2023/09/22 05:21:04;;;;;;;0.40;0.20;;;14.90;99.90;;;;;;5133566;27;20419;-51
2023/09/22 05:23:34;;;;;;;0.80;0.20;;;15.10;99.90;;;;;;5132747;27;20865;-57
2023/09/22 05:26:05;;;;;;;0.50;0.20;;;15.20;99.90;;;;;;5133861;28;20450;-55
2023/09/22 05:28:33;;;;;;;0.60;0.20;;;15.20;99.90;;;;;;5133196;28;20818;-55
2023/09/22 05:31:03;;;;;;;0.40;0.20;;;15.10;99.90;;;;;;5132733;28;20422;-55
2023/09/22 05:33:31;;;;;;;0.40;0.20;;;15.10;99.90;;;;;;5133060;28;20457;-56
2023/09/22 05:35:58;;;;;;;0.40;0.15;;;15.10;99.90;;;;;;5131581;28;20445;-56
2023/09/22 05:38:25;;;;;;;0.50;0.20;;;15.20;99.90;;;;;;5133153;28;20417;-56
2023/09/22 05:40:54;;;;;;;0.60;0.20;;;15.20;99.90;;;;;;5132521;28;20882;-55
2023/09/22 05:43:22;;;;;;;0.50;0.20;;;15.20;99.90;;;;;;5132718;28;20436;-57
2023/09/22 05:45:54;;;;;;;1.00;0.20;;;15.20;99.90;;;;;;5131704;28;20428;-57
2023/09/22 05:48:21;;;;;;;0.40;0.20;;;15.30;99.90;;;;;;5131452;28;20419;-57
2023/09/22 05:50:56;;;;;;;0.60;0.20;;;15.30;99.90;;;;;;5129963;28;20510;-56
2023/09/22 05:53:25;;;;;;;0.30;0.10;;;15.20;99.90;;;;;;5130911;27;20510;-56
2023/09/22 05:56:04;;;;;;;0.50;0.20;;;15.20;99.90;;;;;;5136385;27;20487;-56
2023/09/22 05:58:32;;;;;;;0.75;0.20;;;15.30;99.90;;;;;;5135377;27;21018;-56
2023/09/22 06:01:06;;;;;;;0.50;0.20;;;15.20;99.90;;;;;;5137374;27;20798;-55
2023/09/22 06:03:34;;;;;;;0.40;0.20;;;15.20;99.90;;;;;;5135675;27;20470;-55
2023/09/22 06:06:06;;;;;;;0.75;0.20;;;15.10;99.90;;;;;;5133194;27;20433;-58
2023/09/22 06:08:33;;;;;;;0.70;0.20;;;15.00;99.90;;;;;;5131559;27;20529;-59
2023/09/22 06:11:02;;;;;;;0.40;0.13;;;15.00;99.90;;;;;;5136615;27;20420;-58
2023/09/22 06:13:29;;;;;;;0.50;0.20;;;15.40;99.90;;;;;;5137562;27;20908;-57
2023/09/22 06:15:56;;;;;;;0.40;0.20;;;15.40;99.90;;;;;;5136206;27;20426;-58
2023/09/22 06:18:24;;;;;;;0.50;0.20;;;15.30;99.90;;;;;;5136073;27;20429;-58
2023/09/22 06:20:55;;;;;;;0.40;0.20;;;15.30;99.90;;;;;;5135948;27;20530;-58
2023/09/22 06:23:23;;;;;;;0.38;0.15;;;15.10;99.90;;;;;;5135222;27;20694;-58
2023/09/22 06:25:51;;;;;;;0.60;0.10;;;15.00;99.90;;;;;;5136389;27;20491;-57
2023/09/22 06:28:19;;;;;;;0.40;0.20;;;15.10;99.90;;;;;;5136473;27;20745;-52
2023/09/22 06:30:47;;;;;;;0.50;0.20;;;15.20;99.90;;;;;;5133678;27;20648;-55
2023/09/22 06:33:14;;;;;;;0.40;0.20;;;15.30;99.90;;;;;;5132129;27;20718;-55
2023/09/22 06:35:43;;;;;;;0.40;0.20;;;15.30;99.90;;;;;;5132506;27;20497;-53
2023/09/22 06:38:10;;;;;;;0.43;0.20;;;15.40;99.90;;;;;;5134440;27;20414;-52
2023/09/22 06:40:38;;;;;;;0.47;0.20;;;15.50;99.90;;;;;;5133914;27;20419;-55
2023/09/22 06:43:08;;;;;;;0.40;0.20;;;15.70;99.90;;;;;;5133611;27;20422;-56
2023/09/22 06:45:38;;;;;;;0.30;0.20;;;15.70;99.90;;;;;;5133582;27;20861;-52
2023/09/22 06:48:06;;;;;;;0.40;0.20;;;15.90;99.90;;;;;;5137438;27;20868;-55
2023/09/22 06:50:35;;;;;;;0.40;0.20;;;16.00;99.90;;;;;;5136194;27;20402;-54
2023/09/22 06:53:02;;;;;;;1.50;0.20;;;16.00;99.90;;;;;;5137361;27;20445;-55
2023/09/22 06:55:30;;;;;;;0.40;0.20;;;15.90;99.90;;;;;;5134050;27;20514;-54
2023/09/22 06:57:58;;;;;;;1.10;0.20;;;15.90;99.90;;;;;;5132723;27;20414;-53
2023/09/22 07:00:28;;;;;;;0.40;0.20;;;15.80;99.90;;;;;;5132866;27;20430;-51
2023/09/22 07:02:57;;;;;;;0.40;0.20;;;15.70;99.90;;;;;;5135047;27;20434;-54
2023/09/22 07:05:24;;;;;;;0.40;0.20;;;15.60;99.90;;;;;;5129046;27;20480;-56
2023/09/22 07:07:52;;;;;;;0.40;0.20;;;15.60;99.90;;;;;;5123790;27;20419;-55
2023/09/22 07:10:20;;;;;;;0.47;0.20;;;15.70;99.90;;;;;;5133857;27;20418;-54
2023/09/22 07:12:48;;;;;;;1.50;0.20;;;15.70;99.90;;;;;;5132883;27;20529;-55
2023/09/22 07:15:15;;;;;;;0.40;0.20;;;15.60;99.90;;;;;;5133205;27;20494;-54
2023/09/22 07:17:44;;;;;;;0.70;0.20;;;15.70;99.90;;;;;;5131802;27;20418;-55
2023/09/22 07:20:14;;;;;;;0.90;0.20;;;15.70;99.90;;;;;;5132197;27;20438;-52
2023/09/22 07:22:42;;;;;;;0.40;0.20;;;15.90;99.90;;;;;;5132735;27;20426;-53
2023/09/22 07:25:09;;;;;;;0.40;0.20;;;15.90;99.90;;;;;;5133193;27;20421;-54
2023/09/22 07:27:39;;;;;;;0.40;0.20;;;15.80;99.90;;;;;;5134088;27;20416;-55
2023/09/22 07:30:09;;;;;;;0.40;0.20;;;15.80;99.90;;;;;;5134158;27;20490;-51
2023/09/22 07:32:38;;;;;;;0.30;0.20;;;15.70;99.90;;;;;;5133633;27;20467;-49
2023/09/22 07:35:07;;;;;;;0.30;0.10;;;15.80;99.90;;;;;;5125193;27;20414;-53
2023/09/22 07:37:35;;;;;;;0.60;0.20;;;15.80;99.90;;;;;;5134298;27;20426;-55
2023/09/22 07:40:08;;;;;;;0.30;0.20;;;16.00;99.90;;;;;;5135252;27;20425;-55
2023/09/22 07:42:37;;;;;;;0.40;0.20;;;16.10;99.90;;;;;;5133997;27;20448;-55
2023/09/22 07:45:05;;;;;;;0.50;0.20;;;16.10;99.90;;;;;;5133029;27;20423;-55
2023/09/22 07:47:34;;;;;;;0.60;0.20;;;16.10;99.90;;;;;;5133294;27;20407;-54
2023/09/22 07:50:01;;;;;;;0.50;0.20;;;16.10;99.90;;;;;;5129942;27;20840;-53
2023/09/22 07:52:28;;;;;;;0.40;0.20;;;15.90;99.90;;;;;;5131552;27;20414;-53
2023/09/22 07:54:57;;;;;;;0.40;0.20;;;16.00;99.90;;;;;;5133010;27;20471;-55
2023/09/22 07:57:24;;;;;;;0.30;0.20;;;15.90;99.90;;;;;;5132138;27;20423;-54
2023/09/22 07:59:52;;;;;;;0.40;0.20;;;15.80;99.90;;;;;;5131654;27;20425;-55
2023/09/22 08:02:19;;;;;;;0.73;0.20;;;15.90;99.90;;;;;;5130304;27;20749;-54
2023/09/22 08:04:46;;;;;;;0.52;0.20;;;15.90;99.90;;;;;;5131262;27;20845;-54
2023/09/22 08:07:13;;;;;;;0.40;0.20;;;15.90;99.90;;;;;;5131684;27;20415;-56
2023/09/22 08:09:41;;;;;;;0.40;0.20;;;15.80;99.90;;;;;;5133718;27;20422;-54
2023/09/22 08:12:10;;;;;;;0.60;0.20;;;15.90;99.90;;;;;;5133618;27;20407;-50
2023/09/22 08:14:37;;;;;;;0.40;0.20;;;16.00;99.90;;;;;;5135552;27;20467;-52
2023/09/22 08:17:06;;;;;;;1.15;0.20;;;16.00;99.90;;;;;;5134699;27;20833;-54
2023/09/22 08:19:33;;;;;;;0.40;0.20;;;16.00;99.90;;;;;;5133582;27;20489;-57
2023/09/22 08:22:01;;;;;;;0.80;0.30;;;16.20;99.90;;;;;;5133579;27;20717;-50
2023/09/22 08:24:28;;;;;;;0.40;0.20;;;16.30;99.90;;;;;;5134615;27;20414;-56
2023/09/22 08:26:59;;;;;;;0.57;0.20;;;16.50;99.90;;;;;;5134617;27;20422;-54
2023/09/22 08:29:27;;;;;;;0.80;0.20;;;16.60;99.90;;;;;;5134252;27;20599;-53
2023/09/22 08:31:58;;;;;;;1.70;0.30;;;16.90;99.90;;;;;;5117425;27;20745;-50
2023/09/22 08:34:25;;;;;;;1.70;0.20;;;17.20;99.90;;;;;;5134331;27;20418;-52
2023/09/22 08:36:52;;;;;;;0.60;0.20;;;17.10;94.70;;;;;;5133791;27;20511;-51
2023/09/22 08:39:20;;;;;;;0.40;0.20;;;17.10;99.90;;;;;;5128715;27;20416;-51
2023/09/22 08:41:47;;;;;;;0.52;0.20;;;17.00;99.90;;;;;;5132017;27;20933;-54
2023/09/22 08:44:15;;;;;;;0.40;0.20;;;17.10;99.90;;;;;;5131767;27;20410;-54
2023/09/22 08:46:45;;;;;;;0.50;0.20;;;17.10;91.70;;;;;;5132580;27;20506;-54
2023/09/22 08:49:12;;;;;;;0.45;0.20;;;17.20;99.90;;;;;;5130884;27;20419;-55
2023/09/22 08:51:40;;;;;;;0.40;0.20;;;17.20;99.90;;;;;;5130178;27;20407;-53
2023/09/22 08:54:10;;;;;;;0.40;0.20;;;17.20;94.90;;;;;;5129818;27;20415;-55
2023/09/22 08:56:37;;;;;;;0.40;0.20;;;17.40;99.90;;;;;;5131532;27;20487;-55
2023/09/22 08:59:04;;;;;;;0.50;0.20;;;17.50;80.20;;;;;;5130422;27;20521;-54
2023/09/22 09:01:33;;;;;;;0.32;0.10;;;17.50;95.10;;;;;;5130353;27;20424;-53
2023/09/22 09:04:31;;;;;;;0.40;0.20;;;17.70;52.90;;;;;;5130770;27;20839;-55
2023/09/22 09:06:58;;;;;;;0.50;0.20;;;17.60;76.20;;;;;;5131717;27;20442;-54
2023/09/22 09:09:26;;;;;;;1.40;0.20;;;17.70;92.50;;;;;;5133040;27;20501;-54
2023/09/22 09:11:59;;;;;;;0.40;0.20;;;17.80;64.70;;;;;;5132414;27;20452;-52
2023/09/22 09:14:28;;;;;;;1.10;0.20;;;17.60;68.10;;;;;;5132668;27;20414;-54
2023/09/22 09:16:56;;;;;;;0.50;0.20;;;17.50;80.30;;;;;;5131337;27;20865;-55
2023/09/22 09:19:26;;;;;;;0.40;0.20;;;17.50;77.70;;;;;;5132917;27;20553;-50
2023/09/22 09:22:09;;;;;;;0.50;0.20;;;17.60;90.60;;;;;;5133223;27;20441;-53
2023/09/22 09:24:37;;;;;;;0.52;0.20;;;17.60;91.20;;;;;;5130548;27;20772;-54
2023/09/22 09:27:17;;;;;;;0.40;0.20;;;17.60;88.40;;;;;;5130983;28;20444;-53
2023/09/22 09:29:46;;;;;;;0.60;0.20;;;17.40;91.50;;;;;;5131560;27;20422;-51
2023/09/22 09:32:24;;;;;;;0.50;0.20;;;17.30;99.90;;;;;;5134205;28;20450;-55
2023/09/22 09:34:53;;;;;;;0.80;0.20;;;17.20;99.90;;;;;;5133565;28;20425;-54
2023/09/22 09:37:21;;;;;;;0.40;0.20;;;17.10;99.90;;;;;;5120282;28;20431;-52
2023/09/22 09:39:50;;;;;;;0.60;0.20;;;17.20;99.90;;;;;;5116421;28;20510;-53
2023/09/22 09:42:19;;;;;;;0.43;0.20;;;17.20;99.90;;;;;;5131360;28;20422;-53
2023/09/22 09:44:49;;;;;;;0.40;0.20;;;17.40;99.90;;;;;;5133063;28;20776;-52
2023/09/22 09:47:24;;;;;;;0.40;0.20;;;17.30;99.90;;;;;;5132597;28;20430;-56
2023/09/22 09:49:55;;;;;;;0.65;0.20;;;17.30;99.90;;;;;;5132903;28;20418;-52
2023/09/22 09:52:27;;;;;;;0.35;0.13;;;17.50;99.90;;;;;;5120733;28;20426;-54
2023/09/22 09:55:12;;;;;;;0.40;0.20;;;17.80;96.30;;;;;;5132382;28;21018;-53
2023/09/22 09:57:40;;;;;;;0.50;0.30;;;17.90;86.30;;;;;;5131140;28;20410;-53
2023/09/22 10:00:12;;;;;;;0.50;0.20;;;17.70;76.90;;;;;;5130401;28;20402;-51
2023/09/22 10:02:43;;;;;;;0.40;0.20;;;17.70;91.40;;;;;;5132426;28;20736;-51
2023/09/22 10:05:14;;;;;;;0.50;0.20;;;17.60;90.00;;;;;;5132155;28;20445;-52
2023/09/22 10:07:43;;;;;;;1.25;0.25;;;17.60;94.70;;;;;;5129347;28;20734;-53
2023/09/22 10:10:11;;;;;;;0.50;0.20;;;17.70;93.00;;;;;;5127649;28;20418;-53
2023/09/22 10:12:39;;;;;;;1.52;0.20;;;17.70;72.10;;;;;;5123830;28;20506;-52
2023/09/22 10:15:07;;;;;;;0.40;0.20;;;17.60;90.30;;;;;;5115919;28;20497;-52
2023/09/22 10:17:36;;;;;;;0.65;0.20;;;17.70;74.30;;;;;;5130262;28;20418;-53
2023/09/22 10:20:10;;;;;;;0.70;0.20;;;17.90;66.50;;;;;;5128227;28;20475;-51
2023/09/22 10:22:39;;;;;;;0.40;0.20;;;18.00;40.20;;;;;;5127164;28;20478;-53
2023/09/22 10:25:31;;;;;;;0.57;0.20;;;18.10;29.40;;;;;;5128633;28;20461;-52
2023/09/22 10:27:59;;;;;;;0.80;0.20;;;18.10;30.20;;;;;;5099586;28;20431;-54
2023/09/22 10:31:03;;;;;;;0.30;0.10;;;17.90;16.20;;;;;;5130916;28;20410;-53
2023/09/22 10:33:32;;;;;;;0.40;0.20;;;17.90;30.00;;;;;;5130523;28;20410;-54
2023/09/22 10:35:59;;;;;;;0.40;0.20;;;18.10;12.40;;;;;;5117084;28;20434;-55
2023/09/22 10:38:29;;;;;;;0.60;0.20;;;18.40;1.00;;;;;;5128435;28;20537;-53
2023/09/22 10:41:05;;;;;;;0.30;0.10;;;18.70;1.00;;;;;;5130208;27;20543;-54
2023/09/22 10:43:34;;;;;;;0.30;0.10;;;18.90;1.00;;;;;;5124601;27;20438;-53
2023/09/22 10:46:02;;;;;;;0.30;0.10;;;19.10;1.00;;;;;;5135793;27;20433;-55
2023/09/22 10:48:34;;;;;;;0.40;0.10;;;19.10;1.00;;;;;;5133766;27;20418;-49
2023/09/22 10:51:06;;;;;;;0.40;0.10;;;18.90;1.00;;;;;;5135528;27;20414;-52
2023/09/22 10:53:38;;;;;;;0.80;0.20;;;19.10;1.00;;;;;;5128839;27;20430;-54
2023/09/22 10:56:05;;;;;;;0.30;0.10;;;19.20;99.90;;;;;;5135104;27;20741;-57
2023/09/22 10:58:34;;;;;;;0.33;0.20;;;19.30;1.00;;;;;;5133122;27;20877;-51
2023/09/22 11:01:04;;;;;;;0.40;0.10;;;19.30;1.00;;;;;;5134295;27;20433;-51
2023/09/22 11:03:33;;;;;;;0.50;0.10;;;19.30;1.00;;;;;;5133894;27;20433;-50
2023/09/22 11:06:04;;;;;;;0.40;0.20;;;19.30;1.00;;;;;;5133851;27;20453;-53
2023/09/22 11:08:32;;;;;;;0.40;0.20;;;19.10;1.00;;;;;;5133694;27;20495;-52
2023/09/22 11:11:01;;;;;;;0.40;0.10;;;19.00;99.90;;;;;;5135654;27;20422;-52
2023/09/22 11:13:28;;;;;;;0.50;0.20;;;19.00;1.00;;;;;;5136153;27;20797;-51
2023/09/22 11:15:57;;;;;;;0.43;0.20;;;19.00;1.00;;;;;;5135254;27;20444;-53
2023/09/22 11:18:26;;;;;;;0.40;0.15;;;19.00;99.90;;;;;;5135034;27;20426;-51
2023/09/22 11:21:02;;;;;;;1.00;0.20;;;19.00;99.90;;;;;;5134728;27;20467;-50
2023/09/22 11:23:30;;;;;;;0.47;0.10;;;19.10;99.90;;;;;;5136358;27;20434;-54
2023/09/22 11:25:58;;;;;;;0.50;0.30;;;19.30;99.90;;;;;;5136604;27;20418;-50
2023/09/22 11:28:27;;;;;;;0.40;0.20;;;19.60;99.90;;;;;;5135631;27;20419;-50
2023/09/22 11:30:54;;;;;;;1.38;0.20;;;19.50;99.90;;;;;;5134631;27;20430;-53
2023/09/22 11:33:22;;;;;;;0.50;0.20;;;19.40;99.90;;;;;;5134684;27;20415;-54
2023/09/22 11:35:53;;;;;;;0.50;0.20;;;19.50;99.90;;;;;;5133624;27;20717;-55
2023/09/22 11:38:26;;;;;;;0.70;0.20;;;19.40;99.90;;;;;;5133082;27;20508;-54
2023/09/22 11:41:03;;;;;;;0.70;0.20;;;19.20;99.90;;;;;;5131697;27;20512;-50
2023/09/22 11:43:32;;;;;;;0.50;0.20;;;19.30;99.90;;;;;;5115638;27;20429;-53
2023/09/22 11:46:10;;;;;;;0.50;0.20;;;19.50;99.90;;;;;;5131569;27;20539;-52
2023/09/22 11:49:08;;;;;;;0.40;0.20;;;19.50;99.90;;;;;;5132038;27;20498;-53
2023/09/22 11:51:48;;;;;;;0.40;0.20;;;19.40;99.90;;;;;;5048249;28;20455;-51
2023/09/22 11:54:18;;;;;;;0.40;0.15;;;19.30;99.90;;;;;;5108269;27;20448;-49
2023/09/22 11:56:45;;;;;;;0.40;0.20;;;19.30;99.90;;;;;;5119401;27;20822;-49
2023/09/22 11:59:15;;;;;;;0.60;0.20;;;19.40;99.90;;;;;;5120044;27;20505;-53
2023/09/22 12:01:43;;;;;;;0.40;0.20;;;19.70;99.90;;;;;;5133887;27;20420;-53
2023/09/22 12:04:10;;;;;;;0.60;0.20;;;20.00;99.90;;;;;;5133242;27;20740;-53
2023/09/22 12:06:40;;;;;;;0.70;0.20;;;20.20;99.90;;;;;;5145427;27;20430;-51
2023/09/22 12:09:10;;;;;;;0.90;0.80;;;20.20;99.90;;;;;;5133799;27;20517;-52
2023/09/22 12:11:38;;;;;;;0.57;0.30;;;20.20;99.90;;;;;;5132845;27;20458;-51
2023/09/22 12:14:05;;;;;;;0.40;0.20;;;20.10;99.90;;;;;;5134671;27;20427;-52
2023/09/22 12:16:34;;;;;;;0.60;0.30;;;19.90;99.90;;;;;;5132356;27;20465;-54
2023/09/22 12:19:03;;;;;;;1.08;0.20;;;19.80;99.90;;;;;;5135549;27;20762;-48
2023/09/22 12:21:32;;;;;;;0.50;0.20;;;19.90;99.90;;;;;;5133240;27;20877;-50
2023/09/22 12:23:59;;;;;;;0.90;0.20;;;20.20;99.90;;;;;;5133872;27;20516;-54
2023/09/22 12:26:27;;;;;;;0.40;0.20;;;20.10;99.90;;;;;;5134164;27;20723;-48
2023/09/22 12:28:55;;;;;;;0.50;0.20;;;20.30;99.90;;;;;;5127654;27;20434;-52
2023/09/22 12:31:22;;;;;;;0.40;0.20;;;20.30;99.90;;;;;;5130424;27;20520;-53
2023/09/22 12:33:50;;;;;;;0.40;0.20;;;20.20;99.90;;;;;;5134908;27;20513;-53
2023/09/22 12:36:18;;;;;;;0.40;0.20;;;20.20;99.90;;;;;;5134486;27;20529;-56
2023/09/22 12:38:45;;;;;;;0.50;0.20;;;20.40;99.90;;;;;;5135369;27;20426;-45
2023/09/22 12:41:13;;;;;;;0.80;0.20;;;20.40;99.90;;;;;;5132396;27;20805;-51
2023/09/22 12:43:40;;;;;;;0.40;0.20;;;20.40;99.90;;;;;;5133209;27;20448;-54
2023/09/22 12:46:12;;;;;;;0.40;0.20;;;20.70;99.90;;;;;;5132858;27;20410;-52
2023/09/22 12:48:40;;;;;;;0.60;0.20;;;20.80;99.90;;;;;;5123846;27;20418;-53
2023/09/22 12:51:11;;;;;;;0.70;0.20;;;20.70;99.90;;;;;;5134089;27;20502;-52
2023/09/22 12:53:38;;;;;;;0.50;0.30;;;20.90;99.90;;;;;;5131972;27;20487;-52
2023/09/22 12:56:06;;;;;;;0.40;0.10;;;21.10;99.90;;;;;;5132230;27;20418;-53